createdAt,value
2019-04-03T00:03:02.728Z,1.23
2019-04-03T00:05:33.710Z,1.50
2019-04-03T00:14:06.965Z,0.90
2019-04-03T00:16:36.632Z,1.70
2019-04-03T00:22:21.977Z,1.20
2019-04-03T00:24:52.676Z,1.17
2019-04-03T00:27:22.683Z,1.00
2019-04-03T00:29:53.588Z,1.10
2019-04-03T00:32:24.742Z,0.90
2019-04-03T00:34:54.150Z,1.40
2019-04-03T00:37:23.779Z,0.87
2019-04-03T00:39:54.488Z,1.00
2019-04-03T00:43:03.662Z,1.03
2019-04-03T00:48:58.706Z,0.77
2019-04-03T00:51:28.111Z,1.10
2019-04-03T00:53:59.271Z,1.20
2019-04-03T01:02:12.531Z,1.20
2019-04-03T01:05:21.187Z,1.07
2019-04-03T01:08:29.897Z,1.13
2019-04-03T01:11:00.405Z,1.30
2019-04-03T01:19:45.309Z,1.10
2019-04-03T01:22:33.831Z,1.57
2019-04-03T01:25:03.393Z,1.10
2019-04-03T01:27:33.103Z,1.07
2019-04-03T01:30:15.051Z,0.77
2019-04-03T01:35:23.524Z,1.37
2019-04-03T01:38:32.207Z,0.97
2019-04-03T01:41:01.780Z,1.33
2019-04-03T01:43:31.115Z,1.17
2019-04-03T01:46:00.683Z,1.77
2019-04-03T01:48:30.026Z,1.47
2019-04-03T01:51:00.067Z,1.57
2019-04-03T01:54:09.044Z,1.43
2019-04-03T01:56:38.445Z,1.10
2019-04-03T01:59:07.878Z,1.50
2019-04-03T02:01:38.885Z,1.30
2019-04-03T02:04:47.797Z,1.20
2019-04-03T02:07:17.395Z,1.37
2019-04-03T02:09:48.378Z,1.10
2019-04-03T02:12:19.682Z,1.10
2019-04-03T02:14:50.950Z,1.20
2019-04-03T02:17:20.274Z,1.20
2019-04-03T02:19:49.775Z,1.00
2019-04-03T02:22:19.249Z,0.73
2019-04-03T02:24:48.783Z,1.17
2019-04-03T02:27:19.832Z,1.20
2019-04-03T02:29:49.326Z,1.03
2019-04-03T02:32:18.734Z,1.00
2019-04-03T02:34:48.067Z,1.77
2019-04-03T02:40:53.045Z,1.20
2019-04-03T02:43:22.582Z,1.27
2019-04-03T02:45:55.549Z,1.50
2019-04-03T02:48:23.268Z,1.60
2019-04-03T02:54:27.021Z,1.10
2019-04-03T03:03:18.580Z,1.50
2019-04-03T03:05:49.294Z,1.93
2019-04-03T03:08:22.182Z,1.53
2019-04-03T03:11:09.327Z,2.50
2019-04-03T03:20:07.699Z,2.07
2019-04-03T03:25:38.399Z,1.83
2019-04-03T03:28:47.859Z,1.87
2019-04-03T03:32:08.123Z,2.30
2019-04-03T03:34:47.376Z,1.83
2019-04-03T03:37:39.415Z,2.33
2019-04-03T03:40:10.658Z,3.27
2019-04-03T03:43:19.330Z,2.27
2019-04-03T03:49:09.568Z,2.57
2019-04-03T03:57:41.924Z,2.30
2019-04-03T04:03:32.874Z,2.80
2019-04-03T04:12:23.794Z,2.70
2019-04-03T04:24:16.166Z,4.00
2019-04-03T04:26:45.734Z,3.60
2019-04-03T04:32:10.777Z,3.43
2019-04-03T04:35:21.452Z,3.80
2019-04-03T04:37:50.822Z,3.30
2019-04-03T04:40:20.213Z,4.07
2019-04-03T04:42:50.135Z,4.50
2019-04-03T04:45:21.144Z,5.33
2019-04-03T04:48:29.974Z,4.77
2019-04-03T04:54:08.438Z,3.33
2019-04-03T04:56:38.439Z,7.10
2019-04-03T04:59:07.950Z,4.03
2019-04-03T05:02:19.357Z,2.30
2019-04-03T05:04:47.970Z,3.37
2019-04-03T05:07:17.650Z,3.17
2019-04-03T05:09:47.055Z,3.10
2019-04-03T05:18:07.023Z,3.87
2019-04-03T05:20:57.109Z,2.67
2019-04-03T05:23:26.713Z,2.43
2019-04-03T05:25:56.042Z,3.50
2019-04-03T05:29:05.070Z,3.90
2019-04-03T05:34:50.214Z,4.53
2019-04-03T05:37:58.945Z,4.50
2019-04-03T05:41:07.749Z,3.60
2019-04-03T05:46:32.283Z,2.97
2019-04-03T05:49:03.463Z,2.87
2019-04-03T05:52:12.147Z,2.60
2019-04-03T05:54:44.034Z,2.17
2019-04-03T05:57:14.047Z,2.00
2019-04-03T06:00:14.550Z,2.20
2019-04-03T06:02:44.176Z,2.80
2019-04-03T06:05:18.510Z,1.93
2019-04-03T06:07:48.480Z,2.93
2019-04-03T06:10:17.532Z,3.20
2019-04-03T06:12:47.025Z,2.07
2019-04-03T06:18:32.090Z,2.07
2019-04-03T06:21:01.724Z,2.10
2019-04-03T06:26:37.818Z,4.23
2019-04-03T06:34:48.753Z,2.77
2019-04-03T06:37:18.323Z,2.50
2019-04-03T06:40:27.145Z,2.70
2019-04-03T06:42:56.756Z,1.73
2019-04-03T06:45:27.058Z,2.30
2019-04-03T06:48:37.137Z,2.20
2019-04-03T06:51:07.471Z,2.60
2019-04-03T06:53:36.963Z,2.87
2019-04-03T06:56:08.895Z,2.20
2019-04-03T07:01:38.884Z,2.17
2019-04-03T07:04:08.292Z,2.10
2019-04-03T07:06:37.800Z,2.00
2019-04-03T07:09:21.290Z,2.23
2019-04-03T07:11:39.514Z,2.30
2019-04-03T07:14:48.236Z,2.13
2019-04-03T07:17:17.821Z,2.83
2019-04-03T07:19:47.631Z,2.13
2019-04-03T07:22:17.006Z,2.13
2019-04-03T07:24:46.532Z,2.37
2019-04-03T07:27:15.894Z,2.00
2019-04-03T07:33:20.288Z,1.97
2019-04-03T07:35:49.791Z,2.03
2019-04-03T07:38:21.456Z,2.00
2019-04-03T07:40:51.999Z,2.50
2019-04-03T07:43:21.805Z,2.13
2019-04-03T07:45:51.176Z,1.70
2019-04-03T07:49:00.696Z,2.60
2019-04-03T07:51:31.175Z,1.90
2019-04-03T07:54:00.838Z,2.00
2019-04-03T07:56:42.473Z,2.07
2019-04-03T07:59:11.964Z,2.20
2019-04-03T08:01:41.899Z,1.90
2019-04-03T08:04:15.405Z,2.00
2019-04-03T08:09:58.850Z,2.00
2019-04-03T08:12:48.366Z,2.07
2019-04-03T08:18:21.507Z,2.50
2019-04-03T08:20:50.437Z,2.23
2019-04-03T08:23:19.886Z,1.63
2019-04-03T08:25:53.951Z,2.13
2019-04-03T08:28:22.409Z,2.00
2019-04-03T08:30:53.842Z,2.10
2019-04-03T08:33:27.060Z,1.93
2019-04-03T08:39:21.660Z,1.93
2019-04-03T08:41:51.215Z,2.50
2019-04-03T08:44:20.712Z,2.20
2019-04-03T08:46:50.235Z,2.17
2019-04-03T08:52:28.443Z,2.60
2019-04-03T09:01:10.703Z,2.30
2019-04-03T09:03:40.057Z,2.53
2019-04-03T09:06:48.884Z,2.33
2019-04-03T09:09:18.451Z,2.70
2019-04-03T09:11:47.952Z,2.03
2019-04-03T09:14:20.110Z,2.57
2019-04-03T09:16:50.375Z,2.20
2019-04-03T09:19:19.745Z,2.53
2019-04-03T09:21:51.080Z,2.07
2019-04-03T09:27:15.609Z,2.50
2019-04-03T09:29:45.859Z,2.20
2019-04-03T09:32:55.464Z,2.17
2019-04-03T09:35:24.986Z,1.87
2019-04-03T09:37:54.389Z,2.50
2019-04-03T09:41:04.781Z,2.50
2019-04-03T09:46:35.792Z,2.47
2019-04-03T09:49:44.677Z,2.10
2019-04-03T09:52:15.591Z,2.50
2019-04-03T09:54:45.276Z,2.20
2019-04-03T09:57:35.376Z,2.50
2019-04-03T10:03:08.449Z,2.67
2019-04-03T10:05:51.180Z,2.83
2019-04-03T10:08:20.563Z,3.10
2019-04-03T10:10:50.081Z,2.23
2019-04-03T10:13:22.994Z,2.50
2019-04-03T10:15:52.653Z,2.50
2019-04-03T10:18:23.545Z,2.10
2019-04-03T10:20:54.707Z,1.80
2019-04-03T10:23:24.402Z,1.93
2019-04-03T10:25:55.469Z,2.03
2019-04-03T10:28:24.849Z,2.00
2019-04-03T10:30:54.554Z,2.57
2019-04-03T10:36:42.427Z,2.33
2019-04-03T10:39:53.035Z,2.30
2019-04-03T10:42:21.469Z,2.30
2019-04-03T10:44:50.794Z,2.70
2019-04-03T10:53:19.214Z,1.93
2019-04-03T10:55:48.107Z,2.53
2019-04-03T10:58:17.852Z,2.13
2019-04-03T11:00:47.184Z,2.20
2019-04-03T11:03:16.528Z,2.63
2019-04-03T11:05:46.196Z,2.03
2019-04-03T11:08:17.248Z,2.40
2019-04-03T11:10:46.709Z,2.80
2019-04-03T11:13:16.134Z,2.07
2019-04-03T11:15:45.712Z,2.10
2019-04-03T11:21:30.424Z,2.67
2019-04-03T11:24:00.204Z,2.00
2019-04-03T11:26:31.041Z,2.07
2019-04-03T11:31:55.650Z,2.17
2019-04-03T11:34:25.033Z,2.30
2019-04-03T11:36:54.555Z,1.87
2019-04-03T11:39:24.191Z,2.63
2019-04-03T11:41:56.252Z,3.40
2019-04-03T11:44:26.253Z,2.30
2019-04-03T11:46:55.958Z,2.57
2019-04-03T11:49:25.400Z,2.30
2019-04-03T11:51:55.147Z,3.37
2019-04-03T11:54:24.527Z,2.57
2019-04-03T11:56:56.470Z,3.50
2019-04-03T11:59:25.254Z,2.60
2019-04-03T12:01:54.659Z,2.80
2019-04-03T12:07:17.672Z,2.70
2019-04-03T12:10:26.814Z,2.97
2019-04-03T12:13:36.832Z,2.90
2019-04-03T12:16:06.325Z,2.93
2019-04-03T12:18:35.664Z,3.03
2019-04-03T12:21:44.490Z,2.90
2019-04-03T12:24:27.249Z,3.13
2019-04-03T12:26:56.675Z,2.67
2019-04-03T12:29:26.397Z,2.87
2019-04-03T12:31:57.223Z,3.30
2019-04-03T12:34:26.646Z,2.97
2019-04-03T12:36:55.996Z,3.40
2019-04-03T12:39:44.300Z,3.20
2019-04-03T12:42:16.500Z,3.23
2019-04-03T12:44:44.936Z,3.30
2019-04-03T12:47:14.345Z,4.40
2019-04-03T12:49:43.752Z,3.07
2019-04-03T12:52:13.244Z,3.80
2019-04-03T12:54:42.614Z,3.43
2019-04-03T12:57:12.066Z,3.60
2019-04-03T12:59:43.446Z,3.40
2019-04-03T13:02:14.256Z,3.20
2019-04-03T13:04:43.690Z,3.23
2019-04-03T13:07:14.497Z,2.90
2019-04-03T13:09:44.384Z,3.67
2019-04-03T13:12:15.243Z,2.97
2019-04-03T13:14:44.573Z,3.20
2019-04-03T13:17:14.792Z,2.80
2019-04-03T13:19:45.362Z,2.70
2019-04-03T13:22:17.629Z,2.77
2019-04-03T13:24:48.333Z,2.90
2019-04-03T13:27:17.720Z,3.40
2019-04-03T13:29:48.530Z,3.10
2019-04-03T13:32:18.058Z,3.33
2019-04-03T13:37:44.238Z,3.37
2019-04-03T13:40:53.125Z,3.00
2019-04-03T13:43:22.714Z,2.80
2019-04-03T13:45:53.726Z,3.20
2019-04-03T13:48:23.172Z,3.07
2019-04-03T13:50:54.815Z,3.10
2019-04-03T13:53:25.583Z,2.63
2019-04-03T13:58:55.802Z,3.20
2019-04-03T14:01:27.596Z,2.90
2019-04-03T14:03:56.219Z,2.97
2019-04-03T14:06:25.558Z,3.20
2019-04-03T14:08:55.248Z,2.77
2019-04-03T14:11:26.002Z,2.63
2019-04-03T14:13:55.422Z,2.90
2019-04-03T14:16:43.752Z,2.73
2019-04-03T14:19:13.379Z,3.17
2019-04-03T14:21:44.169Z,3.27
2019-04-03T14:24:13.658Z,2.63
2019-04-03T14:26:45.617Z,3.37
2019-04-03T14:31:50.040Z,2.93
2019-04-03T14:40:35.444Z,3.20
2019-04-03T14:43:05.242Z,3.00
2019-04-03T14:45:34.761Z,3.03
2019-04-03T14:48:04.111Z,3.37
2019-04-03T14:50:52.436Z,2.93
2019-04-03T14:53:22.477Z,2.80
2019-04-03T14:55:53.031Z,3.13
2019-04-03T14:58:41.609Z,2.70
2019-04-03T15:07:17.771Z,2.80
2019-04-03T15:10:00.290Z,2.70
2019-04-03T15:13:12.661Z,2.87
2019-04-03T15:15:40.535Z,2.37
2019-04-03T15:18:10.598Z,3.23
2019-04-03T15:20:40.311Z,2.73
2019-04-03T15:23:09.771Z,2.80
2019-04-03T15:25:40.270Z,2.90
2019-04-03T15:28:10.728Z,2.90
2019-04-03T15:33:42.363Z,2.77
2019-04-03T15:36:11.741Z,2.77
2019-04-03T15:39:20.497Z,3.03
2019-04-03T15:41:51.756Z,2.77
2019-04-03T15:44:22.849Z,2.93
2019-04-03T15:46:52.328Z,3.77
2019-04-03T15:49:21.647Z,2.63
2019-04-03T15:52:30.434Z,3.10
2019-04-03T15:58:08.461Z,3.13
2019-04-03T16:01:17.231Z,2.50
2019-04-03T16:03:48.798Z,2.87
2019-04-03T16:09:49.533Z,2.80
2019-04-03T16:12:29.577Z,3.47
2019-04-03T16:14:58.921Z,2.97
2019-04-03T16:17:28.296Z,2.60
2019-04-03T16:20:37.133Z,2.63
2019-04-03T16:25:56.582Z,3.43
2019-04-03T16:28:26.448Z,3.07
2019-04-03T16:30:57.163Z,2.77
2019-04-03T16:33:26.507Z,3.10
2019-04-03T16:35:56.205Z,2.83
2019-04-03T16:38:28.989Z,3.67
2019-04-03T16:40:58.169Z,3.73
2019-04-03T16:43:27.485Z,3.00
2019-04-03T16:45:56.971Z,3.80
2019-04-03T16:48:26.625Z,3.67
2019-04-03T16:50:59.705Z,3.03
2019-04-03T16:54:10.274Z,3.47
2019-04-03T16:59:53.482Z,3.23
2019-04-03T17:02:24.758Z,3.37
2019-04-03T17:04:54.067Z,3.00
2019-04-03T17:07:23.455Z,3.33
2019-04-03T17:09:52.829Z,3.50
2019-04-03T17:18:18.623Z,3.50
2019-04-03T17:20:50.375Z,3.33
2019-04-03T17:23:31.146Z,3.30
2019-04-03T17:26:00.520Z,3.20
2019-04-03T17:28:30.082Z,3.50
2019-04-03T17:33:56.705Z,3.20
2019-04-03T17:36:28.067Z,3.70
2019-04-03T17:39:17.750Z,3.43
2019-04-03T17:41:47.205Z,3.40
2019-04-03T17:44:16.546Z,3.40
2019-04-03T17:46:48.673Z,3.63
2019-04-03T17:49:17.282Z,3.10
2019-04-03T17:51:46.597Z,3.40
2019-04-03T17:54:16.244Z,3.80
2019-04-03T17:56:45.645Z,3.40
2019-04-03T17:59:14.976Z,3.50
2019-04-03T18:01:44.476Z,4.17
2019-04-03T18:04:13.985Z,3.60
2019-04-03T18:06:43.323Z,3.93
2019-04-03T18:09:12.687Z,3.60
2019-04-03T18:11:42.818Z,3.90
2019-04-03T18:14:12.268Z,4.40
2019-04-03T18:16:41.714Z,4.10
2019-04-03T18:19:11.276Z,3.87
2019-04-03T18:21:40.716Z,3.53
2019-04-03T18:24:10.312Z,4.03
2019-04-03T18:26:39.743Z,3.80
2019-04-03T18:29:09.094Z,3.90
2019-04-03T18:31:38.479Z,4.00
2019-04-03T18:34:07.891Z,4.67
2019-04-03T18:36:37.253Z,3.73
2019-04-03T18:39:47.975Z,3.77
2019-04-03T18:42:18.625Z,3.77
2019-04-03T18:45:27.902Z,4.20
2019-04-03T18:57:14.985Z,4.13
2019-04-03T19:02:46.807Z,4.10
2019-04-03T19:05:55.481Z,4.40
2019-04-03T19:11:13.782Z,4.43
2019-04-03T19:13:45.072Z,4.40
2019-04-03T19:16:24.029Z,3.80
2019-04-03T19:18:46.609Z,4.27
2019-04-03T19:21:24.746Z,3.97
2019-04-03T19:23:49.978Z,4.30
2019-04-03T19:26:18.915Z,3.87
2019-04-03T19:28:48.262Z,4.90
2019-04-03T19:31:17.633Z,4.20
2019-04-03T19:33:47.041Z,4.13
2019-04-03T19:36:16.525Z,4.40
2019-04-03T19:38:46.353Z,4.17
2019-04-03T19:41:15.906Z,3.93
2019-04-03T19:43:45.861Z,4.20
2019-04-03T19:46:15.829Z,4.67
2019-04-03T19:48:45.535Z,4.27
2019-04-03T19:51:15.490Z,4.13
2019-04-03T19:53:49.283Z,4.57
2019-04-03T19:56:16.228Z,4.20
2019-04-03T19:58:46.100Z,4.60
2019-04-03T20:01:15.509Z,4.13
2019-04-03T20:03:44.962Z,4.20
2019-04-03T20:06:34.980Z,4.40
2019-04-03T20:15:22.358Z,4.80
2019-04-03T20:17:54.576Z,5.13
2019-04-03T20:20:22.609Z,5.47
2019-04-03T20:22:52.299Z,5.07
2019-04-03T20:25:21.689Z,4.47
2019-04-03T20:27:52.154Z,4.53
2019-04-03T20:31:01.576Z,4.90
2019-04-03T20:33:30.994Z,5.33
2019-04-03T20:36:00.551Z,4.97
2019-04-03T20:38:30.162Z,5.50
2019-04-03T20:41:02.849Z,4.57
2019-04-03T20:43:30.715Z,4.63
2019-04-03T20:46:01.387Z,5.27
2019-04-03T20:48:30.786Z,5.00
2019-04-03T20:51:00.325Z,5.00
2019-04-03T20:53:30.138Z,4.80
2019-04-03T20:55:59.865Z,4.80
2019-04-03T20:59:02.700Z,5.03
2019-04-03T21:01:35.272Z,5.00
2019-04-03T21:04:03.529Z,5.33
2019-04-03T21:09:47.750Z,4.53
2019-04-03T21:12:18.805Z,4.70
2019-04-03T21:14:48.253Z,4.73
2019-04-03T21:20:31.513Z,5.00
2019-04-03T21:23:02.882Z,4.83
2019-04-03T21:25:44.169Z,4.63
2019-04-03T21:28:13.632Z,4.57
2019-04-03T21:36:58.555Z,4.90
2019-04-03T21:40:07.217Z,4.63
2019-04-03T21:42:36.866Z,4.40
2019-04-03T21:48:33.671Z,4.30
2019-04-03T21:53:55.961Z,5.00
2019-04-03T21:56:23.990Z,4.70
2019-04-03T22:05:16.069Z,4.37
2019-04-03T22:07:45.572Z,5.07
2019-04-03T22:16:05.178Z,4.37
2019-04-03T22:21:43.281Z,4.27
2019-04-03T22:24:12.635Z,4.60
2019-04-03T22:26:42.072Z,4.20
2019-04-03T22:29:51.405Z,4.83
2019-04-03T22:32:23.033Z,3.87
2019-04-03T22:35:04.604Z,4.23
2019-04-03T22:37:35.122Z,4.37
2019-04-03T22:40:16.371Z,4.40
2019-04-03T22:42:46.075Z,4.80
2019-04-03T22:45:18.084Z,4.27
2019-04-03T22:47:47.934Z,4.20
2019-04-03T22:50:17.406Z,4.97
2019-04-03T22:52:46.739Z,4.27
2019-04-03T22:55:16.089Z,5.10
2019-04-03T23:00:59.833Z,4.50
2019-04-03T23:03:29.183Z,4.77
2019-04-03T23:05:58.512Z,4.60
2019-04-03T23:08:27.843Z,4.73
2019-04-03T23:10:57.175Z,4.37
2019-04-03T23:13:26.647Z,4.30
2019-04-03T23:15:56.143Z,4.27
2019-04-03T23:18:25.524Z,4.37
2019-04-03T23:20:54.848Z,4.63
2019-04-03T23:24:03.494Z,4.73
2019-04-03T23:26:32.988Z,4.70
2019-04-03T23:31:59.208Z,5.53
2019-04-03T23:34:28.536Z,4.60
2019-04-03T23:36:57.906Z,4.40
2019-04-03T23:39:28.997Z,4.80
2019-04-03T23:41:58.337Z,4.90
2019-04-03T23:47:42.098Z,4.17
2019-04-03T23:53:20.117Z,4.57
2019-04-03T23:55:49.454Z,4.77
2019-04-03T23:58:18.772Z,4.97
